| time (UTC) | temp C | wind direction | speed KPH | gust KPH | rain 1hr cm | rain 24hr cm | rain mn cm | humidity % | barometer mb |
| 20260509064507 | 11 | 274 | 0.0 | 1.6 | 0.08 | 0.28 | 0.15 | 97 | 1007.7 |
| 20260509063006 | 11 | 274 | 1.6 | 6.4 | 0.08 | 0.25 | 0.13 | 97 | 1007.8 |
| 20260509061505 | 11 | 298 | 3.2 | 6.4 | 0.05 | 0.23 | 0.10 | 97 | 1008.2 |
| 20260509060010 | 11 | 301 | 3.2 | 6.4 | 0.03 | 0.20 | 0.08 | 97 | 1008.4 |
| 20260509054503 | 11 | 335 | 1.6 | 4.8 | 0.03 | 0.20 | 0.08 | 97 | 1008.2 |
| 20260509053010 | 11 | 346 | 3.2 | 9.7 | 0.03 | 0.18 | 0.05 | 97 | 1008.2 |
| 20260509051605 | 11 | 338 | 3.2 | 9.7 | 0.03 | 0.18 | 0.05 | 96 | 1008.1 |
| 20260509050002 | 11 | 337 | 3.2 | 6.4 | 0.05 | 0.18 | 0.05 | 96 | 1007.9 |
| 20260509044559 | 11 | 324 | 3.2 | 9.7 | 0.05 | 0.18 | 0.05 | 96 | 1007.8 |
| 20260509043059 | 11 | 331 | 4.8 | 11.3 | 0.03 | 0.15 | 0.03 | 96 | 1008.2 |
| 20260509041556 | 12 | 350 | 4.8 | 9.7 | 0.05 | 0.15 | 0.03 | 95 | 1008.1 |
| 20260509040104 | 12 | 340 | 3.2 | 4.8 | 0.05 | 0.13 | 0.13 | 95 | 1008.4 |
| 20260509034553 | 12 | 336 | 3.2 | 8.0 | 0.08 | 0.13 | 0.13 | 94 | 1008.6 |
| 20260509033053 | 12 | 315 | 1.6 | 6.4 | 0.08 | 0.10 | 0.10 | 94 | 1008.8 |
| 20260509031552 | 12 | 345 | 1.6 | 6.4 | 0.10 | 0.10 | 0.10 | 94 | 1008.7 |
| 20260509030051 | 12 | 346 | 0.0 | 3.2 | 0.08 | 0.08 | 0.08 | 93 | 1008.9 |
| 20260509024550 | 12 | 346 | 1.6 | 8.0 | 0.05 | 0.05 | 0.05 | 93 | 1008.8 |
| 20260509023049 | 12 | 341 | 1.6 | 6.4 | 0.03 | 0.03 | 0.03 | 92 | 1008.9 |
| 20260509021549 | 12 | 296 | 1.6 | 14.5 | 0.00 | 0.00 | 0.00 | 91 | 1009.2 |
| 20260509020048 | 12 | 327 | 4.8 | 14.5 | 0.00 | 0.00 | 0.00 | 90 | 1009.2 |
| 20260509014546 | 12 | 321 | 6.4 | 14.5 | 0.00 | 0.00 | 0.00 | 88 | 1009.0 |
| 20260509013058 | 13 | 311 | 9.7 | 16.1 | 0.00 | 0.00 | 0.00 | 85 | 1009.0 |
| 20260509011545 | 13 | 324 | 6.4 | 14.5 | 0.00 | 0.00 | 0.00 | 83 | 1008.7 |
| 20260509010044 | 13 | 3 | 3.2 | 9.7 | 0.00 | 0.00 | 0.00 | 80 | 1008.1 |
| 20260509004604 | 14 | 4 | 3.2 | 6.4 | 0.00 | 0.00 | 0.00 | 79 | 1007.9 |
| 20260509003045 | 15 | 357 | 6.4 | 12.9 | 0.00 | 0.00 | 0.00 | 76 | 1008.0 |
| 20260509001542 | 16 | 324 | 9.7 | 19.3 | 0.00 | 0.00 | 0.00 | 71 | 1008.2 |
| 20260509000040 | 17 | 249 | 0.0 | 3.2 | 0.00 | 0.00 | 0.00 | 64 | 1007.9 |
| 20260508234539 | 17 | 247 | 0.0 | 3.2 | 0.00 | 0.00 | 0.00 | 63 | 1008.0 |
| 20260508233038 | 17 | 241 | 3.2 | 11.3 | 0.00 | 0.00 | 0.00 | 61 | 1007.9 |
| 20260508231538 | 17 | 230 | 1.6 | 8.0 | 0.00 | 0.00 | 0.00 | 61 | 1007.8 |
| 20260508230051 | 17 | 234 | 3.2 | 6.4 | 0.00 | 0.00 | 0.00 | 60 | 1007.7 |
| 20260508224536 | 17 | 237 | 3.2 | 6.4 | 0.00 | 0.00 | 0.00 | 60 | 1007.8 |
| 20260508223036 | 17 | 237 | 1.6 | 4.8 | 0.00 | 0.00 | 0.00 | 60 | 1007.7 |
| 20260508221537 | 17 | 238 | 3.2 | 6.4 | 0.00 | 0.00 | 0.00 | 59 | 1007.7 |
| 20260508220034 | 18 | 240 | 1.6 | 11.3 | 0.00 | 0.00 | 0.00 | 58 | 1007.7 |
| 20260508214533 | 18 | 219 | 1.6 | 11.3 | 0.00 | 0.00 | 0.00 | 55 | 1007.6 |
| 20260508213032 | 18 | 268 | 8.0 | 22.5 | 0.00 | 0.00 | 0.00 | 54 | 1007.8 |
| 20260508211534 | 18 | 252 | 11.3 | 19.3 | 0.00 | 0.00 | 0.00 | 52 | 1007.8 |
| 20260508210035 | 18 | 239 | 8.0 | 19.3 | 0.00 | 0.00 | 0.00 | 52 | 1008.0 |
| 20260508204529 | 18 | 236 | 8.0 | 14.5 | 0.00 | 0.00 | 0.00 | 52 | 1008.0 |
| 20260508203027 | 18 | 233 | 12.9 | 22.5 | 0.00 | 0.00 | 0.00 | 51 | 1008.1 |
| 20260508201525 | 18 | 230 | 11.3 | 22.5 | 0.00 | 0.00 | 0.00 | 51 | 1008.6 |
| 20260508200036 | 18 | 211 | 6.4 | 17.7 | 0.00 | 0.00 | 0.00 | 54 | 1009.1 |
| 20260508194521 | 18 | 244 | 9.7 | 16.1 | 0.00 | 0.00 | 0.00 | 53 | 1009.5 |
| 20260508193020 | 18 | 247 | 11.3 | 24.1 | 0.00 | 0.00 | 0.00 | 51 | 1009.5 |
| 20260508191518 | 18 | 248 | 9.7 | 22.5 | 0.00 | 0.00 | 0.00 | 51 | 1009.8 |
| 20260508190017 | 18 | 239 | 6.4 | 27.4 | 0.00 | 0.00 | 0.00 | 50 | 1009.9 |
| 20260508184528 | 18 | 272 | 12.9 | 32.2 | 0.00 | 0.00 | 0.00 | 47 | 1010.0 |
| 20260508183015 | 18 | 278 | 12.9 | 27.4 | 0.00 | 0.00 | 0.00 | 49 | 1010.0 |
| 20260508181527 | 18 | 214 | 17.7 | 33.8 | 0.00 | 0.00 | 0.00 | 49 | 1010.0 |
| 20260508180012 | 19 | 282 | 12.9 | 22.5 | 0.00 | 0.00 | 0.00 | 51 | 1010.4 |
| 20260508174513 | 18 | 246 | 14.5 | 27.4 | 0.00 | 0.00 | 0.00 | 54 | 1010.8 |
| 20260508173005 | 18 | 228 | 9.7 | 32.2 | 0.00 | 0.00 | 0.00 | 54 | 1011.1 |
| 20260508171501 | 17 | 197 | 8.0 | 27.4 | 0.00 | 0.00 | 0.00 | 55 | 1011.3 |
| 20260508170059 | 17 | 251 | 16.1 | 32.2 | 0.00 | 0.00 | 0.00 | 56 | 1011.7 |
| 20260508164603 | 17 | 239 | 11.3 | 25.7 | 0.00 | 0.00 | 0.00 | 56 | 1012.0 |
| 20260508163058 | 16 | 245 | 14.5 | 25.7 | 0.00 | 0.00 | 0.00 | 57 | 1012.2 |
| 20260508161553 | 16 | 232 | 16.1 | 29.0 | 0.00 | 0.00 | 0.00 | 57 | 1012.5 |
| 20260508160049 | 16 | 245 | 20.9 | 40.2 | 0.00 | 0.00 | 0.00 | 57 | 1012.6 |
| 20260508154546 | 16 | 199 | 22.5 | 37.0 | 0.00 | 0.00 | 0.00 | 57 | 1012.8 |
| 20260508153049 | 16 | 214 | 14.5 | 38.6 | 0.00 | 0.00 | 0.00 | 58 | 1012.7 |
| 20260508151549 | 16 | 213 | 17.7 | 37.0 | 0.00 | 0.00 | 0.00 | 58 | 1012.8 |
| 20260508150045 | 15 | 249 | 20.9 | 35.4 | 0.00 | 0.00 | 0.00 | 58 | 1012.9 |
| 20260508144546 | 15 | 199 | 14.5 | 29.0 | 0.00 | 0.00 | 0.00 | 59 | 1013.1 |
| 20260508143037 | 14 | 245 | 19.3 | 32.2 | 0.00 | 0.00 | 0.00 | 58 | 1013.2 |
| 20260508141534 | 13 | 248 | 12.9 | 37.0 | 0.00 | 0.00 | 0.00 | 59 | 1013.1 |
| 20260508140031 | 13 | 235 | 17.7 | 29.0 | 0.00 | 0.00 | 0.00 | 60 | 1013.5 |
| 20260508134537 | 12 | 247 | 16.1 | 33.8 | 0.00 | 0.00 | 0.00 | 60 | 1013.5 |
| 20260508133032 | 12 | 233 | 12.9 | 29.0 | 0.00 | 0.00 | 0.00 | 61 | 1013.4 |
| 20260508131523 | 12 | 189 | 9.7 | 20.9 | 0.00 | 0.00 | 0.00 | 62 | 1013.4 |
| 20260508130020 | 11 | 263 | 11.3 | 24.1 | 0.00 | 0.00 | 0.00 | 63 | 1013.4 |
| 20260508124516 | 11 | 240 | 8.0 | 27.4 | 0.00 | 0.00 | 0.00 | 64 | 1013.5 |
| 20260508123012 | 10 | 199 | 8.0 | 19.3 | 0.00 | 0.00 | 0.00 | 65 | 1013.4 |
| 20260508121511 | 10 | 243 | 8.0 | 17.7 | 0.00 | 0.00 | 0.00 | 65 | 1013.3 |
| 20260508120006 | 9 | 228 | 6.4 | 14.5 | 0.00 | 0.00 | 0.00 | 67 | 1013.1 |
| 20260508114504 | 8 | 203 | 6.4 | 14.5 | 0.00 | 0.00 | 0.00 | 68 | 1013.1 |
| 20260508113003 | 8 | 204 | 6.4 | 12.9 | 0.00 | 0.00 | 0.00 | 69 | 1013.1 |
| 20260508111505 | 8 | 208 | 8.0 | 12.9 | 0.00 | 0.00 | 0.00 | 70 | 1013.0 |
| 20260508104559 | 8 | 212 | 4.8 | 9.7 | 0.00 | 0.00 | 0.00 | 69 | 1012.9 |
| 20260508103101 | 8 | 224 | 4.8 | 12.9 | 0.00 | 0.00 | 0.00 | 68 | 1012.9 |
| 20260508101615 | 8 | 191 | 6.4 | 14.5 | 0.00 | 0.00 | 0.00 | 68 | 1012.8 |
| 20260508100056 | 8 | 203 | 4.8 | 9.7 | 0.00 | 0.00 | 0.00 | 67 | 1012.8 |
| 20260508094554 | 9 | 220 | 4.8 | 12.9 | 0.00 | 0.00 | 0.00 | 66 | 1012.8 |
| 20260508093054 | 9 | 205 | 6.4 | 12.9 | 0.00 | 0.00 | 0.00 | 66 | 1012.8 |
| 20260508091604 | 9 | 204 | 6.4 | 20.9 | 0.00 | 0.00 | 0.00 | 66 | 1012.9 |
| 20260508090108 | 9 | 218 | 6.4 | 17.7 | 0.00 | 0.00 | 0.00 | 66 | 1012.8 |
| 20260508084550 | 8 | 216 | 4.8 | 12.9 | 0.00 | 0.00 | 0.00 | 67 | 1012.8 |
| 20260508083048 | 8 | 223 | 6.4 | 14.5 | 0.00 | 0.00 | 0.00 | 67 | 1012.9 |
| 20260508081551 | 8 | 217 | 3.2 | 12.9 | 0.00 | 0.00 | 0.00 | 67 | 1013.0 |
| 20260508080147 | 8 | 245 | 4.8 | 9.7 | 0.00 | 0.00 | 0.00 | 68 | 1012.9 |
| 20260508074546 | 8 | 208 | 4.8 | 11.3 | 0.00 | 0.00 | 0.00 | 67 | 1012.9 |
| 20260508073046 | 8 | 205 | 4.8 | 12.9 | 0.00 | 0.00 | 0.00 | 68 | 1012.8 |
| 20260508071553 | 8 | 211 | 4.8 | 11.3 | 0.00 | 0.00 | 0.00 | 68 | 1013.0 |
| 20260508070044 | 8 | 198 | 6.4 | 12.9 | 0.00 | 0.00 | 0.00 | 67 | 1013.0 |